Flight Track Log - Related Links

Times and Time Zones

All times are in EDT time to prevent confusion due to time zone crossing. See the ASQ5190 flight status page for this flight to view local times or setup timezone preferences in your user account.

Time Position Orientation Groundspeed Altitude Reporting Facility
EDT Latitude Longitude Course Direction KTS MPH feet Rate Location/Type
Thu 09:43:42 AM 33.6333 -84.4667 244° Southwest 170 196 2,800  Level Atlanta TRACON
Thu 09:44:48 AM 33.6000 -84.5500 212° Southwest 265 305 5,600 2,905 Climbing Atlanta TRACON
Thu 09:45:48 AM 33.5333 -84.6000 198° South 289 333 8,900 2,200 Climbing Atlanta TRACON
Thu 09:46:48 AM 33.4500 -84.6333 198° South 310 357 10,000 550 Climbing Atlanta TRACON
Thu 09:47:48 AM 33.3667 -84.6667 188° South 334 384 10,000  Level Atlanta TRACON
Thu 09:48:48 AM 33.2667 -84.6833 196° South 345 397 10,000  Level Atlanta TRACON
Thu 09:49:54 AM 33.1667 -84.7167 196° South 352 405 10,000  Level Atlanta TRACON
Thu 09:50:54 AM 33.0667 -84.7500 199° South 357 411 10,000  Level Atlanta TRACON
Thu 09:51:54 AM 32.9833 -84.7833 196° South 358 412 10,000 -100 Level Atlanta TRACON
Thu 09:52:54 AM 32.8833 -84.8167 203° Southwest 308 354 9,800 -800 Descending Atlanta TRACON
Thu 09:53:54 AM 32.8167 -84.8500 203° Southwest 280 322 8,400 -1,500 Descending Atlanta TRACON
Thu 09:54:54 AM 32.7500 -84.8833 212° Southwest 278 320 6,800 -1,550 Descending Atlanta TRACON
Thu 09:55:54 AM 32.6833 -84.9333 203° Southwest 264 304 5,300 -900 Descending Atlanta TRACON
Thu 09:56:54 AM 32.6167 -84.9667 212° Southwest 268 308 5,000 -149 Descending Atlanta TRACON
Thu 09:57:55 AM 32.5500 -85.0167 232° Southwest 260 299 5,000 -300 Level Atlanta TRACON
Thu 09:58:54 AM 32.5167 -85.0667 164° South 209 241 4,400 -1,062 Descending Atlanta TRACON
Thu 09:59:48 AM 32.4667 -85.0500 68° East 189 217 3,000 -1,421 Descending Atlanta TRACON
Thu 10:00:48 AM 32.4833 -85.0000 59° Northeast 145 167 1,700 -1,150 Descending Atlanta TRACON
Thu 10:01:48 AM 32.5000 -84.9667 91° East 135 155 700 -1,000 Descending Atlanta TRACON
Thu 10:09:32 AM 32.4997 -84.9345 91° East  Level FlightAware Approximate

Login

Don't have an account? Register now (free) for customized features, flight alerts, and more!